バンクーバー の空港の天気 - METARとTAF

バンクーバー国際空港 ( CYVR / YVR ) - カナダ ブリティッシュコロンビア州バンクーバー
飛行場実況気象(Metar)
観測時間05/24 21:00 PDT (05/25 04:00 UTC)
風向・風速西北西 3m/s
視程10km以上
天気現象
全天の8割程度の雲 雲底高度 1550m
全天を覆う雲 雲底高度 2440m
気温14℃
湿度82%
気圧1020hPa
METARCYVR 250400Z 29005KT 15SM BKN051 OVC080 14/11 A3012 RMK SC5AS3 SLP200
過去の天気等 Google飛行場航空写真 Wunderground天気予報

過去48時間のMETAR

飛行場予報(TAF)
発表時間: 5/24 19:38 PDT (5/25 02:38 UTC)
予報対象時間: 24日20時 PDT ~ 25日23時 PDT
風向・風速不定 2m/s
視程10km以上
少しの雲 雲底高度 610m
全天を覆う雲 雲底高度 1830m
24日20時 PDT ~ 24日23時 PDT に一時的に
視程10km以上
天気現象弱いしゅう雨
24日23時 PDT から
風向・風速不定 2m/s
視程10km以上
天気現象弱い雨
全天の4割程度の雲 雲底高度 300m
全天を覆う雲 雲底高度 760m
24日23時 PDT ~ 25日11時 PDT に一時的に
視程8050m
天気現象弱いしゅう雨 もや
全天の4割程度の雲 雲底高度 180m
全天を覆う雲 雲底高度 370m
24日23時 PDT ~ 25日1時 PDT に徐々に
風向・風速東 4m/s
25日11時 PDT から
風向・風速南 4m/s
視程10km以上
全天の4割程度の雲 雲底高度 610m
全天の8割程度の雲 雲底高度 1220m
25日15時 PDT ~ 25日23時 PDT に一時的に
視程10km以上
天気現象弱いしゅう雨
全天の8割程度の雲 雲底高度 610m
TAF CYVR 250238Z 2503/2606 VRB03KT P6SM FEW020 OVC060
TEMPO 2503/2506 P6SM -SHRA
FM250600 VRB03KT P6SM -RA SCT010 OVC025
TEMPO 2506/2518 5SM -SHRA BR SCT006 OVC012
BECMG 2506/2508 10008KT
FM251800 18008KT P6SM SCT020 BKN040
TEMPO 2522/2606 P6SM -SHRA BKN020 RMK NXT FCST BY 250600Z